createdAt,value
2023-08-03T19:18:05.141Z,32.01
2023-08-03T19:23:02.955Z,32.11
2023-08-03T19:28:03.300Z,31.67
2023-08-03T19:33:03.016Z,31.72
2023-08-03T19:38:03.843Z,31.79
2023-08-03T19:43:02.363Z,31.65
2023-08-03T19:48:02.537Z,31.84
2023-08-03T20:08:25.806Z,32.09
2023-08-03T20:13:23.819Z,31.79
2023-08-03T20:18:23.239Z,31.90
2023-08-03T20:23:21.567Z,31.62
2023-08-03T20:28:25.858Z,31.83
2023-08-03T20:33:24.796Z,31.72
2023-08-03T20:38:33.737Z,32.03
2023-08-03T20:43:34.906Z,31.94
2023-08-03T20:48:36.441Z,32.16
2023-08-03T20:53:36.012Z,32.33
2023-08-03T20:58:34.130Z,31.98
2023-08-03T21:03:34.627Z,32.34
2023-08-03T21:08:31.904Z,32.29
2023-08-03T21:13:30.468Z,32.67
2023-08-03T21:23:27.831Z,32.89
2023-08-03T21:28:24.780Z,32.94
2023-08-03T21:33:23.580Z,33.16
2023-08-03T21:38:20.528Z,33.18
2023-08-03T21:43:18.589Z,34.07
2023-08-03T21:48:15.500Z,34.17
2023-08-03T21:53:13.117Z,33.78
2023-08-03T21:58:10.947Z,34.10
2023-08-03T22:03:07.942Z,34.48
2023-08-03T22:08:05.015Z,34.77
2023-08-03T22:13:02.589Z,34.77
2023-08-03T22:17:59.910Z,34.96
2023-08-03T22:22:57.831Z,34.96
2023-08-03T22:27:54.908Z,34.96
2023-08-03T22:32:52.529Z,35.30
2023-08-03T22:37:49.458Z,35.20
2023-08-03T22:42:46.817Z,35.71
2023-08-03T22:48:01.940Z,36.07
2023-08-03T22:53:01.597Z,35.98
2023-08-03T22:57:58.471Z,36.15
2023-08-03T23:02:55.392Z,36.30
2023-08-03T23:07:52.290Z,36.41
2023-08-03T23:12:50.695Z,36.78
2023-08-03T23:17:47.540Z,36.89
2023-08-03T23:22:44.801Z,37.16
2023-08-03T23:27:41.580Z,37.10
2023-08-03T23:32:39.892Z,37.39
2023-08-03T23:37:36.893Z,37.57
2023-08-03T23:42:33.910Z,37.47
2023-08-03T23:47:30.816Z,38.05
2023-08-03T23:52:28.351Z,38.18
2023-08-03T23:57:25.824Z,37.69
